createdAt,value
2018-05-14T00:02:12.229Z,99.90
2018-05-14T00:04:40.501Z,99.90
2018-05-14T00:07:08.760Z,99.90
2018-05-14T00:09:37.799Z,99.90
2018-05-14T00:12:06.068Z,99.90
2018-05-14T00:14:34.332Z,99.90
2018-05-14T00:17:02.604Z,99.90
2018-05-14T00:19:30.880Z,99.90
2018-05-14T00:21:59.136Z,99.90
2018-05-14T00:24:28.181Z,99.90
2018-05-14T00:26:56.457Z,99.90
2018-05-14T00:29:24.731Z,99.90
2018-05-14T00:31:53.003Z,99.90
2018-05-14T00:34:21.265Z,99.90
2018-05-14T00:36:49.530Z,99.90
2018-05-14T00:39:17.806Z,99.90
2018-05-14T00:41:46.063Z,99.90
2018-05-14T00:44:14.347Z,99.90
2018-05-14T00:46:42.621Z,99.90
2018-05-14T00:49:10.881Z,99.90
2018-05-14T00:51:39.912Z,99.90
2018-05-14T00:54:08.184Z,99.90
2018-05-14T00:56:36.461Z,99.90
2018-05-14T00:59:04.741Z,99.90
2018-05-14T01:01:33.001Z,99.90
2018-05-14T01:04:01.275Z,99.90
2018-05-14T01:06:29.610Z,99.90
2018-05-14T01:08:57.813Z,99.90
2018-05-14T01:11:26.849Z,99.90
2018-05-14T01:13:55.119Z,99.90
2018-05-14T01:16:23.396Z,99.90
2018-05-14T01:18:51.655Z,99.90
2018-05-14T01:21:19.932Z,99.90
2018-05-14T01:23:48.191Z,99.90
2018-05-14T01:26:16.463Z,99.90
2018-05-14T01:28:44.737Z,99.90
2018-05-14T01:31:13.772Z,99.90
2018-05-14T01:33:42.032Z,99.90
2018-05-14T01:36:10.307Z,99.90
2018-05-14T01:38:38.563Z,99.90
2018-05-14T01:41:06.845Z,99.90
2018-05-14T01:43:35.111Z,99.90
2018-05-14T01:46:03.387Z,99.90
2018-05-14T01:48:31.659Z,99.90
2018-05-14T01:51:00.696Z,99.90
2018-05-14T01:53:28.958Z,99.90
2018-05-14T01:55:57.230Z,99.90
2018-05-14T01:58:25.484Z,99.90
2018-05-14T02:00:53.764Z,99.90
2018-05-14T02:03:22.023Z,99.90
2018-05-14T02:05:51.056Z,99.90
2018-05-14T02:08:19.323Z,99.90
2018-05-14T02:10:47.589Z,99.90
2018-05-14T02:13:15.857Z,99.90
2018-05-14T02:15:44.124Z,99.90
2018-05-14T02:18:13.163Z,99.90
2018-05-14T02:20:41.416Z,99.90
2018-05-14T02:23:09.687Z,99.90
2018-05-14T02:25:37.960Z,99.90
2018-05-14T02:28:06.243Z,99.90
2018-05-14T02:30:34.503Z,99.90
2018-05-14T02:33:02.785Z,99.90
2018-05-14T02:35:31.040Z,99.90
2018-05-14T02:38:00.075Z,99.90
2018-05-14T02:40:28.343Z,99.90
2018-05-14T02:42:56.622Z,99.90
2018-05-14T02:45:24.893Z,99.90
2018-05-14T02:47:53.151Z,99.90
2018-05-14T02:50:21.416Z,99.90
2018-05-14T02:52:50.459Z,99.90
2018-05-14T02:55:18.720Z,99.90
2018-05-14T02:57:46.989Z,99.90
2018-05-14T03:00:15.255Z,99.90
2018-05-14T03:02:43.521Z,99.90
2018-05-14T03:05:12.552Z,99.90
2018-05-14T03:07:40.819Z,99.90
2018-05-14T03:10:09.080Z,99.90
2018-05-14T03:12:37.351Z,99.90
2018-05-14T03:15:05.617Z,99.90
2018-05-14T03:17:34.658Z,99.90
2018-05-14T03:20:02.925Z,99.90
2018-05-14T03:22:31.189Z,99.90
2018-05-14T03:24:59.459Z,99.90
2018-05-14T03:27:27.749Z,99.90
2018-05-14T03:29:56.012Z,99.90
2018-05-14T03:32:24.279Z,99.90
2018-05-14T03:34:52.550Z,99.90
2018-05-14T03:37:20.826Z,99.90
2018-05-14T03:39:49.101Z,99.90
2018-05-14T03:42:17.355Z,99.90
2018-05-14T03:44:46.397Z,99.90
2018-05-14T03:47:14.657Z,99.90
2018-05-14T03:49:42.941Z,99.90
2018-05-14T03:52:11.251Z,99.90
2018-05-14T03:54:39.472Z,99.90
2018-05-14T03:57:07.732Z,99.90
2018-05-14T03:59:54.433Z,99.90
2018-05-14T04:02:41.216Z,99.90
2018-05-14T04:05:18.204Z,99.90
2018-05-14T04:07:46.481Z,99.90
2018-05-14T04:10:15.565Z,99.90
2018-05-14T04:12:43.844Z,99.90
2018-05-14T04:15:12.114Z,99.90
2018-05-14T04:17:40.403Z,99.90
2018-05-14T04:20:08.676Z,99.90
2018-05-14T04:22:36.941Z,99.90
2018-05-14T04:25:05.978Z,99.90
2018-05-14T04:27:35.019Z,99.90
2018-05-14T04:30:03.288Z,99.90
2018-05-14T04:32:31.556Z,99.90
2018-05-14T04:34:59.824Z,99.90
2018-05-14T04:37:28.089Z,99.90
2018-05-14T04:39:56.367Z,99.90
2018-05-14T04:42:24.627Z,99.90
2018-05-14T04:44:53.671Z,99.90
2018-05-14T04:47:21.929Z,99.90
2018-05-14T04:49:50.196Z,99.90
2018-05-14T04:52:18.472Z,99.90
2018-05-14T04:54:46.737Z,99.90
2018-05-14T04:57:15.005Z,99.90
2018-05-14T04:59:44.038Z,99.90
2018-05-14T05:02:12.393Z,99.90
2018-05-14T05:04:40.608Z,99.90
2018-05-14T05:07:08.889Z,99.90
2018-05-14T05:09:37.159Z,99.90
2018-05-14T05:12:05.428Z,99.90
2018-05-14T05:14:33.714Z,99.90
2018-05-14T05:17:02.029Z,99.90
2018-05-14T05:19:30.260Z,99.90
2018-05-14T05:21:58.539Z,99.90
2018-05-14T05:24:26.795Z,99.90
2018-05-14T05:26:55.067Z,99.90
2018-05-14T05:29:23.315Z,99.90
2018-05-14T05:31:51.583Z,99.90
2018-05-14T05:34:19.860Z,99.90
2018-05-14T05:36:48.895Z,99.90
2018-05-14T05:39:17.152Z,99.90
2018-05-14T05:41:45.439Z,99.90
2018-05-14T05:44:13.699Z,99.90
2018-05-14T05:46:41.958Z,99.90
2018-05-14T05:49:10.994Z,99.90
2018-05-14T05:51:39.256Z,99.90
2018-05-14T05:54:07.525Z,99.90
2018-05-14T05:56:35.784Z,99.90
2018-05-14T05:59:04.816Z,99.90
2018-05-14T06:01:33.068Z,99.90
2018-05-14T06:04:01.339Z,99.90
2018-05-14T06:06:29.596Z,99.90
2018-05-14T06:08:58.632Z,99.90
2018-05-14T06:11:26.891Z,99.90
2018-05-14T06:13:55.159Z,99.90
2018-05-14T06:16:23.417Z,99.90
2018-05-14T06:18:52.448Z,99.90
2018-05-14T06:21:20.708Z,99.90
2018-05-14T06:23:48.972Z,99.90
2018-05-14T06:26:18.000Z,99.90
2018-05-14T06:28:46.260Z,99.90
2018-05-14T06:31:14.527Z,99.90
2018-05-14T06:33:42.791Z,99.90
2018-05-14T06:36:11.819Z,99.90
2018-05-14T06:38:40.097Z,99.90
2018-05-14T06:41:08.356Z,99.90
2018-05-14T06:43:36.633Z,99.90
2018-05-14T06:46:04.892Z,99.90
2018-05-14T06:48:33.162Z,99.90
2018-05-14T06:51:02.199Z,99.90
2018-05-14T06:53:30.459Z,99.90
2018-05-14T06:55:58.716Z,99.90
2018-05-14T06:58:27.203Z,99.90
2018-05-14T07:00:56.016Z,99.90
2018-05-14T07:03:24.276Z,99.90
2018-05-14T07:05:52.539Z,99.90
2018-05-14T07:08:20.795Z,99.90
2018-05-14T07:10:49.830Z,99.90
2018-05-14T07:13:18.085Z,99.90
2018-05-14T07:15:46.355Z,99.90
2018-05-14T07:18:14.607Z,99.90
2018-05-14T07:20:43.641Z,99.90
2018-05-14T07:23:11.907Z,99.90
2018-05-14T07:25:40.175Z,99.90
2018-05-14T07:28:08.435Z,99.90
2018-05-14T07:30:37.465Z,99.90
2018-05-14T07:33:05.726Z,99.90
2018-05-14T07:35:33.992Z,99.90
2018-05-14T07:38:03.017Z,99.90
2018-05-14T07:40:31.284Z,99.90
2018-05-14T07:42:59.532Z,99.90
2018-05-14T07:45:28.575Z,99.90
2018-05-14T07:47:56.831Z,99.90
2018-05-14T07:50:25.096Z,99.90
2018-05-14T07:52:53.356Z,99.90
2018-05-14T07:55:22.395Z,99.90
2018-05-14T07:57:50.655Z,99.90
2018-05-14T08:00:18.991Z,99.90
2018-05-14T08:02:47.213Z,99.90
2018-05-14T08:05:15.451Z,99.90
2018-05-14T08:07:43.713Z,99.90
2018-05-14T08:10:12.744Z,99.90
2018-05-14T08:12:41.007Z,99.90
2018-05-14T08:15:09.272Z,99.90
2018-05-14T08:17:38.304Z,99.90
2018-05-14T08:20:06.575Z,99.90
2018-05-14T08:22:34.836Z,99.90
2018-05-14T08:25:03.107Z,99.90
2018-05-14T08:27:31.372Z,99.90
2018-05-14T08:30:00.408Z,99.90
2018-05-14T08:32:28.671Z,99.90
2018-05-14T08:34:56.930Z,99.90
2018-05-14T08:37:25.195Z,99.90
2018-05-14T08:39:53.464Z,99.90
2018-05-14T08:42:22.527Z,99.90
2018-05-14T08:44:50.824Z,99.90
2018-05-14T08:47:19.034Z,99.90
2018-05-14T08:49:47.287Z,99.90
2018-05-14T08:52:16.325Z,99.90
2018-05-14T08:54:44.689Z,99.90
2018-05-14T08:57:12.859Z,99.90
2018-05-14T08:59:41.119Z,99.90
2018-05-14T09:02:09.380Z,99.90
2018-05-14T09:04:38.414Z,99.90
2018-05-14T09:07:06.672Z,99.90
2018-05-14T09:09:34.939Z,99.90
2018-05-14T09:12:03.196Z,99.90
2018-05-14T09:14:32.233Z,99.90
2018-05-14T09:17:00.497Z,99.90
2018-05-14T09:19:28.788Z,99.90
2018-05-14T09:21:57.023Z,99.90
2018-05-14T09:24:26.054Z,99.90
2018-05-14T09:26:54.316Z,99.90
2018-05-14T09:29:22.579Z,99.90
2018-05-14T09:31:50.831Z,99.90
2018-05-14T09:34:19.863Z,99.90
2018-05-14T09:36:48.121Z,99.90
2018-05-14T09:39:16.388Z,99.90
2018-05-14T09:41:45.422Z,99.90
2018-05-14T09:44:13.688Z,99.90
2018-05-14T09:46:41.944Z,99.90
2018-05-14T09:49:10.222Z,99.90
2018-05-14T09:51:38.484Z,99.90
2018-05-14T09:54:07.513Z,99.90
2018-05-14T09:56:35.781Z,99.90
2018-05-14T09:59:04.053Z,99.90
2018-05-14T10:01:32.308Z,99.90
2018-05-14T10:04:00.567Z,99.90
2018-05-14T10:06:29.596Z,99.90
2018-05-14T10:08:57.856Z,99.90
2018-05-14T10:11:26.880Z,99.90
2018-05-14T10:13:55.134Z,99.90
2018-05-14T10:16:23.408Z,99.90
2018-05-14T10:18:51.709Z,99.90
2018-05-14T10:21:20.699Z,99.90
2018-05-14T10:23:48.962Z,99.90
2018-05-14T10:26:17.223Z,99.90
2018-05-14T10:28:45.487Z,99.90
2018-05-14T10:31:14.512Z,99.90
2018-05-14T10:33:42.773Z,99.90
2018-05-14T10:36:11.033Z,99.90
2018-05-14T10:38:40.059Z,99.90
2018-05-14T10:41:08.325Z,99.90
2018-05-14T10:43:36.589Z,99.90
2018-05-14T10:46:04.852Z,99.90
2018-05-14T10:48:33.882Z,99.90
2018-05-14T10:51:02.148Z,99.90
2018-05-14T10:53:30.402Z,99.90
2018-05-14T10:55:58.668Z,99.90
2018-05-14T10:58:27.697Z,99.90
2018-05-14T11:00:55.962Z,99.90
2018-05-14T11:03:24.236Z,99.90
2018-05-14T11:05:52.506Z,99.90
2018-05-14T11:08:20.764Z,99.90
2018-05-14T11:10:49.801Z,99.90
2018-05-14T11:13:18.060Z,99.90
2018-05-14T11:15:46.354Z,99.90
2018-05-14T11:18:14.624Z,99.90
2018-05-14T11:20:42.888Z,99.90
2018-05-14T11:23:11.157Z,99.90
2018-05-14T11:25:39.423Z,99.90
2018-05-14T11:28:07.688Z,99.90
2018-05-14T11:30:36.712Z,99.90
2018-05-14T11:33:04.982Z,99.90
2018-05-14T11:35:33.244Z,99.90
2018-05-14T11:38:01.508Z,99.90
2018-05-14T11:40:30.532Z,99.90
2018-05-14T11:42:58.794Z,99.90
2018-05-14T11:45:27.054Z,99.40
2018-05-14T11:47:56.085Z,98.70
2018-05-14T11:50:24.353Z,98.70
2018-05-14T11:52:52.607Z,98.00
2018-05-14T11:55:20.863Z,98.70
2018-05-14T11:57:49.897Z,98.50
2018-05-14T12:00:18.156Z,98.50
2018-05-14T12:02:46.501Z,99.80
2018-05-14T12:05:15.447Z,98.90
2018-05-14T12:07:43.711Z,98.90
2018-05-14T12:10:11.986Z,98.70
2018-05-14T12:12:40.264Z,98.00
2018-05-14T12:15:08.523Z,97.70
2018-05-14T12:17:36.796Z,99.20
2018-05-14T12:20:05.826Z,98.60
2018-05-14T12:22:34.081Z,98.70
2018-05-14T12:25:02.344Z,98.30
2018-05-14T12:27:30.603Z,96.90
2018-05-14T12:29:59.637Z,95.30
2018-05-14T12:32:27.899Z,95.30
2018-05-14T12:34:56.170Z,98.00
2018-05-14T12:37:24.437Z,96.30
2018-05-14T12:39:53.460Z,97.30
2018-05-14T12:42:21.725Z,97.20
2018-05-14T12:44:50.000Z,97.40
2018-05-14T12:47:18.253Z,98.70
2018-05-14T12:49:47.277Z,99.90
2018-05-14T12:52:15.543Z,99.90
2018-05-14T12:54:43.812Z,99.90
2018-05-14T12:57:12.168Z,99.90
2018-05-14T12:59:40.351Z,99.90
2018-05-14T13:02:09.386Z,99.90
2018-05-14T13:04:37.645Z,99.90
2018-05-14T13:07:05.962Z,99.90
2018-05-14T13:09:34.191Z,99.90
2018-05-14T13:12:02.440Z,99.90
2018-05-14T13:14:31.465Z,99.90
2018-05-14T13:16:59.728Z,99.90
2018-05-14T13:19:27.996Z,99.90
2018-05-14T13:21:57.031Z,99.90
2018-05-14T13:24:25.307Z,99.90
2018-05-14T13:26:53.555Z,99.90
2018-05-14T13:29:21.823Z,99.90
2018-05-14T13:31:50.083Z,99.90
2018-05-14T13:34:19.177Z,99.90
2018-05-14T13:36:47.374Z,99.90
2018-05-14T13:39:15.639Z,99.90
2018-05-14T13:41:43.913Z,99.90
2018-05-14T13:44:12.969Z,99.90
2018-05-14T13:46:41.205Z,99.90
2018-05-14T13:49:09.469Z,99.90
2018-05-14T13:51:37.732Z,99.90
2018-05-14T13:54:06.002Z,99.90
2018-05-14T13:56:35.025Z,99.90
2018-05-14T13:59:03.284Z,99.90
2018-05-14T14:01:31.558Z,99.90
2018-05-14T14:04:00.574Z,97.60
2018-05-14T14:06:28.844Z,97.40
2018-05-14T14:08:57.105Z,96.10
2018-05-14T14:11:25.374Z,94.70
2018-05-14T14:13:54.411Z,95.40
2018-05-14T14:16:22.673Z,95.40
2018-05-14T14:18:50.941Z,92.30
2018-05-14T14:21:19.282Z,90.10
2018-05-14T14:23:47.665Z,90.60
2018-05-14T14:26:16.502Z,85.90
2018-05-14T14:28:44.765Z,85.40
2018-05-14T14:31:13.027Z,85.90
2018-05-14T14:33:41.303Z,87.10
2018-05-14T14:36:09.672Z,89.80
2018-05-14T14:38:38.593Z,84.70
2018-05-14T14:41:06.852Z,84.60
2018-05-14T14:43:35.125Z,84.60
2018-05-14T14:46:03.381Z,78.40
2018-05-14T14:48:32.417Z,75.60
2018-05-14T14:51:00.667Z,75.00
2018-05-14T14:53:29.009Z,71.00
2018-05-14T14:55:57.208Z,71.10
2018-05-14T14:58:25.590Z,62.10
2018-05-14T15:00:54.506Z,60.70
2018-05-14T15:03:22.767Z,60.80
2018-05-14T15:05:51.045Z,61.20
2018-05-14T15:08:19.308Z,59.60
2018-05-14T15:10:47.575Z,62.40
2018-05-14T15:13:16.607Z,61.10
2018-05-14T15:15:44.878Z,61.00
2018-05-14T15:18:13.139Z,62.20
2018-05-14T15:20:41.409Z,62.80
2018-05-14T15:23:09.659Z,65.00
2018-05-14T15:25:38.698Z,61.20
2018-05-14T15:28:06.956Z,61.10
2018-05-14T15:30:35.222Z,61.30
2018-05-14T15:33:03.484Z,62.00
2018-05-14T15:35:32.513Z,66.20
2018-05-14T15:38:00.772Z,66.10
2018-05-14T15:40:29.039Z,67.70
2018-05-14T15:42:58.064Z,68.30
2018-05-14T15:45:26.372Z,68.30
2018-05-14T15:47:54.618Z,68.10
2018-05-14T15:50:22.878Z,67.30
2018-05-14T15:52:51.140Z,68.10
2018-05-14T15:55:19.408Z,68.50
2018-05-14T15:57:48.428Z,66.40
2018-05-14T16:00:16.688Z,66.40
2018-05-14T16:02:44.951Z,65.30
2018-05-14T16:05:13.981Z,66.60
2018-05-14T16:07:42.240Z,66.30
2018-05-14T16:10:10.499Z,65.50
2018-05-14T16:12:39.535Z,62.50
2018-05-14T16:15:07.800Z,62.50
2018-05-14T16:17:36.068Z,65.30
2018-05-14T16:20:04.328Z,66.40
2018-05-14T16:22:32.597Z,68.20
2018-05-14T16:25:01.624Z,74.10
2018-05-14T16:27:29.896Z,74.10
2018-05-14T16:29:58.150Z,73.10
2018-05-14T16:32:26.419Z,73.00
2018-05-14T16:34:54.680Z,77.20
2018-05-14T16:37:23.708Z,75.40
2018-05-14T16:39:51.971Z,75.40
2018-05-14T16:42:20.231Z,76.90
2018-05-14T16:44:49.257Z,78.60
2018-05-14T16:47:17.533Z,78.60
2018-05-14T16:49:45.792Z,78.30
2018-05-14T16:52:14.047Z,77.80
2018-05-14T16:54:43.079Z,74.80
2018-05-14T16:57:11.338Z,74.60
2018-05-14T16:59:39.604Z,74.40
2018-05-14T17:02:08.635Z,72.40
2018-05-14T17:04:36.907Z,73.00
2018-05-14T17:07:05.168Z,74.80
2018-05-14T17:09:33.438Z,75.00
2018-05-14T17:12:02.288Z,74.60
2018-05-14T17:14:30.560Z,75.10
2018-05-14T17:16:58.818Z,76.40
2018-05-14T17:19:27.088Z,75.80
2018-05-14T17:21:55.347Z,77.50
2018-05-14T17:24:23.617Z,78.10
2018-05-14T17:26:51.875Z,78.80
2018-05-14T17:29:20.158Z,79.20
2018-05-14T17:31:48.420Z,82.10
2018-05-14T17:34:17.461Z,85.70
2018-05-14T17:36:45.717Z,85.80
2018-05-14T17:39:13.975Z,86.30
2018-05-14T17:41:42.241Z,87.40
2018-05-14T17:44:11.271Z,90.20
2018-05-14T17:46:39.537Z,90.10
2018-05-14T17:49:07.809Z,91.00
2018-05-14T17:51:36.060Z,91.60
2018-05-14T17:54:05.092Z,92.80
2018-05-14T17:56:33.363Z,92.70
2018-05-14T17:59:01.615Z,93.40
2018-05-14T18:01:29.885Z,93.70
2018-05-14T18:03:58.145Z,93.80
2018-05-14T18:06:27.175Z,94.00
2018-05-14T18:08:55.449Z,94.00
2018-05-14T18:11:23.703Z,93.30
2018-05-14T18:13:51.960Z,92.90
2018-05-14T18:16:21.029Z,92.70
2018-05-14T18:18:49.270Z,92.70
2018-05-14T18:21:23.003Z,92.60
2018-05-14T18:23:51.260Z,92.90
2018-05-14T18:26:19.521Z,92.80
2018-05-14T18:28:49.734Z,92.80
2018-05-14T18:31:23.430Z,92.70
2018-05-14T18:33:54.268Z,92.10
2018-05-14T18:36:22.524Z,92.10
2018-05-14T18:38:51.565Z,92.40
2018-05-14T18:41:19.820Z,92.40
2018-05-14T18:43:48.086Z,92.30
2018-05-14T18:46:16.343Z,92.90
2018-05-14T18:48:45.384Z,92.50
2018-05-14T18:51:13.641Z,92.50
2018-05-14T18:53:41.907Z,91.80
2018-05-14T18:56:10.172Z,91.80
2018-05-14T18:58:39.201Z,90.90
2018-05-14T19:01:07.455Z,90.80
2018-05-14T19:03:35.719Z,91.00
2018-05-14T19:06:04.740Z,90.60
2018-05-14T19:08:33.003Z,90.60
2018-05-14T19:11:06.840Z,88.80
2018-05-14T19:13:35.103Z,87.70
2018-05-14T19:16:08.857Z,85.70
2018-05-14T19:18:37.172Z,84.40
2018-05-14T19:21:05.393Z,82.90
2018-05-14T19:23:39.280Z,81.10
2018-05-14T19:26:07.546Z,78.90
2018-05-14T19:31:37.331Z,77.50
2018-05-14T19:34:10.561Z,77.20
2018-05-14T19:36:37.998Z,75.90
2018-05-14T19:39:06.311Z,75.80
2018-05-14T19:41:33.781Z,75.70
2018-05-14T19:44:01.194Z,74.90
2018-05-14T19:46:28.627Z,74.20
2018-05-14T19:48:56.841Z,72.80
2018-05-14T19:51:24.285Z,72.70
2018-05-14T19:53:51.735Z,73.80
2018-05-14T19:56:19.170Z,73.50
2018-05-14T19:58:47.383Z,72.40
2018-05-14T20:01:14.835Z,72.30
2018-05-14T20:03:42.267Z,72.90
2018-05-14T20:06:10.480Z,72.00
2018-05-14T20:08:37.920Z,72.00
2018-05-14T20:11:05.366Z,72.20
2018-05-14T20:13:32.806Z,73.40
2018-05-14T20:16:01.050Z,71.40
2018-05-14T20:18:28.487Z,71.20
2018-05-14T20:20:55.931Z,71.30
2018-05-14T20:23:23.366Z,71.50
2018-05-14T20:25:50.815Z,70.70
2018-05-14T20:28:19.019Z,70.50
2018-05-14T20:30:46.471Z,70.50
2018-05-14T20:33:13.908Z,71.10
2018-05-14T20:35:42.122Z,71.80
2018-05-14T20:38:09.563Z,71.60
2018-05-14T20:40:37.006Z,71.50
2018-05-14T20:43:04.446Z,71.70
2018-05-14T20:45:32.652Z,71.70
2018-05-14T20:48:00.111Z,71.70
2018-05-14T20:50:27.559Z,72.50
2018-05-14T20:52:54.999Z,73.30
2018-05-14T20:55:22.447Z,74.00
2018-05-14T20:57:50.657Z,73.90
2018-05-14T21:00:18.113Z,73.70
2018-05-14T21:02:45.559Z,73.70
2018-05-14T21:05:12.991Z,74.20
2018-05-14T21:07:40.443Z,75.00
2018-05-14T21:10:08.644Z,76.10
2018-05-14T21:12:36.086Z,76.10
2018-05-14T21:15:03.528Z,77.20
2018-05-14T21:17:31.742Z,77.60
2018-05-14T21:19:59.190Z,77.50
2018-05-14T21:22:26.645Z,77.20
2018-05-14T21:24:54.078Z,78.10
2018-05-14T21:27:21.515Z,78.50
2018-05-14T21:29:49.727Z,79.70
2018-05-14T21:32:17.166Z,79.40
2018-05-14T21:34:44.610Z,81.10
2018-05-14T21:37:12.825Z,81.00
2018-05-14T21:39:40.284Z,80.90
2018-05-14T21:42:07.718Z,80.90
2018-05-14T21:44:35.171Z,81.10
2018-05-14T21:47:02.607Z,81.60
2018-05-14T21:49:30.829Z,82.20
2018-05-14T21:51:58.268Z,82.20
2018-05-14T21:54:25.718Z,82.60
2018-05-14T21:56:53.160Z,82.70
2018-05-14T21:59:21.365Z,83.80
2018-05-14T22:01:48.814Z,83.80
2018-05-14T22:04:16.258Z,83.50
2018-05-14T22:06:43.702Z,85.00
2018-05-14T22:09:11.926Z,92.00
2018-05-14T22:11:39.363Z,92.10
2018-05-14T22:14:06.806Z,87.40
2018-05-14T22:16:34.266Z,87.70
2018-05-14T22:19:01.707Z,88.50
2018-05-14T22:21:29.931Z,90.60
2018-05-14T22:23:57.367Z,90.60
2018-05-14T22:26:24.817Z,92.80
2018-05-14T22:28:52.259Z,94.50
2018-05-14T22:31:19.708Z,94.10
2018-05-14T22:33:47.157Z,94.20
2018-05-14T22:36:15.378Z,95.50
2018-05-14T22:38:42.824Z,95.50
2018-05-14T22:41:10.271Z,95.90
2018-05-14T22:43:37.713Z,96.20
2018-05-14T22:46:05.927Z,95.30
2018-05-14T22:48:33.362Z,95.30
2018-05-14T22:51:00.799Z,96.80
2018-05-14T22:53:29.020Z,96.50
2018-05-14T22:55:56.467Z,96.50
2018-05-14T22:58:23.919Z,95.30
2018-05-14T23:00:51.363Z,96.30
2018-05-14T23:03:18.807Z,97.10
2018-05-14T23:05:46.246Z,96.00
2018-05-14T23:08:14.466Z,97.00
2018-05-14T23:10:41.912Z,96.90
2018-05-14T23:13:09.360Z,97.20
2018-05-14T23:15:36.807Z,98.10
2018-05-14T23:18:04.247Z,98.00
2018-05-14T23:20:32.460Z,98.20
2018-05-14T23:22:59.919Z,98.20
2018-05-14T23:25:27.363Z,99.20
2018-05-14T23:27:54.810Z,99.30
2018-05-14T23:30:22.253Z,99.90
2018-05-14T23:32:49.706Z,99.90
2018-05-14T23:35:17.924Z,99.90
2018-05-14T23:37:45.377Z,99.90
2018-05-14T23:40:12.820Z,99.90
2018-05-14T23:42:40.253Z,99.90
2018-05-14T23:45:07.704Z,99.90
2018-05-14T23:47:35.915Z,99.90
2018-05-14T23:50:03.365Z,99.90
2018-05-14T23:52:30.799Z,99.90
2018-05-14T23:54:58.242Z,99.90
2018-05-14T23:57:26.448Z,99.90
2018-05-14T23:59:53.900Z,99.90
